Time;durP1;ratioP1;P1;durP2;ratioP2;P2;SDS_P1;SDS_P2;PMS_P1;PMS_P2;Temp;Humidity;BMP_temperature;BMP_pressure;BME280_temperature;BME280_humidity;BME280_pressure;Samples;Min_cycle;Max_cycle;Signal;HPM_P1;HPM_P2
2021/12/28 00:00:58;;;;;;;;;;;;;;;;;;4953631;28;19918;-70
2021/12/28 00:03:24;;;;;;;;;;;;;;;;;;4958541;28;20370;-70
2021/12/28 00:05:50;;;;;;;;;;;;;;;;;;4959218;28;20421;-70
2021/12/28 00:08:19;;;;;;;;;;;;;;;;;;4959287;28;20486;-70
2021/12/28 00:10:45;;;;;;;;;;;;;;;;;;4956738;28;20077;-70
2021/12/28 00:13:11;;;;;;;;;;;;;;;;;;4973979;28;20438;-70
2021/12/28 00:16:01;;;;;;;;;;;;;;;;;;4959308;28;19915;-70
2021/12/28 00:18:27;;;;;;;;;;;;;;;;;;4973410;28;20436;-71
2021/12/28 00:20:53;;;;;;;;;;;;;;;;;;4957416;28;19961;-70
2021/12/28 00:23:19;;;;;;;;;;;;;;;;;;4958382;28;19997;-71
2021/12/28 00:25:45;;;;;;;;;;;;;;;;;;4949767;28;19922;-70
2021/12/28 00:28:11;;;;;;;;;;;;;;;;;;4958740;28;20004;-70
2021/12/28 00:30:37;;;;;;;;;;;;;;;;;;4954157;28;20087;-70
2021/12/28 00:33:03;;;;;;;;;;;;;;;;;;4960602;28;19952;-70
2021/12/28 00:35:29;;;;;;;;;;;;;;;;;;4965909;28;19914;-70
2021/12/28 00:37:55;;;;;;;;;;;;;;;;;;4973987;28;19964;-70
2021/12/28 00:40:21;;;;;;;;;;;;;;;;;;4956898;28;19981;-70
2021/12/28 00:42:47;;;;;;;;;;;;;;;;;;4961306;28;19915;-70
2021/12/28 00:45:13;;;;;;;;;;;;;;;;;;4978848;28;19997;-70
2021/12/28 00:47:39;;;;;;;;;;;;;;;;;;4965657;28;19946;-70
2021/12/28 00:50:04;;;;;;;;;;;;;;;;;;4956938;28;19949;-71
2021/12/28 00:52:30;;;;;;;;;;;;;;;;;;4946298;28;20009;-70
2021/12/28 00:54:56;;;;;;;;;;;;;;;;;;4964098;28;20001;-71
2021/12/28 00:57:22;;;;;;;;;;;;;;;;;;4975337;28;20533;-71
2021/12/28 00:59:48;;;;;;;;;;;;;;;;;;4957127;28;20455;-71
2021/12/28 01:02:14;;;;;;;;;;;;;;;;;;4970834;28;20427;-70
2021/12/28 01:04:40;;;;;;;;;;;;;;;;;;4952819;28;19914;-70
2021/12/28 01:07:06;;;;;;;;;;;;;;;;;;4974015;28;19949;-70
2021/12/28 01:09:32;;;;;;;;;;;;;;;;;;4956337;28;19953;-70
2021/12/28 01:11:58;;;;;;;;;;;;;;;;;;4957159;28;19946;-71
2021/12/28 01:14:24;;;;;;;;;;;;;;;;;;4955600;28;19914;-72
2021/12/28 01:16:50;;;;;;;;;;;;;;;;;;4951982;28;19915;-71
2021/12/28 01:19:16;;;;;;;;;;;;;;;;;;4945753;28;20009;-71
2021/12/28 01:21:42;;;;;;;;;;;;;;;;;;4954901;28;19981;-70
2021/12/28 01:24:08;;;;;;;;;;;;;;;;;;4955527;28;19959;-70
2021/12/28 01:26:33;;;;;;;;;;;;;;;;;;4954420;28;19946;-71
2021/12/28 01:28:59;;;;;;;;;;;;;;;;;;4953612;28;20109;-71
2021/12/28 01:31:25;;;;;;;;;;;;;;;;;;4959874;28;19919;-71
2021/12/28 01:33:51;;;;;;;;;;;;;;;;;;4952326;28;19958;-71
2021/12/28 01:36:17;;;;;;;;;;;;;;;;;;4955293;28;19977;-71
2021/12/28 01:38:43;;;;;;;;;;;;;;;;;;4953885;28;19965;-71
2021/12/28 01:41:10;;;;;;;;;;;;;;;;;;4954047;28;19937;-71
2021/12/28 01:43:40;;;;;;;;;;;;;;;;;;4947390;28;19923;-70
2021/12/28 01:46:06;;;;;;;;;;;;;;;;;;4947441;28;19923;-70
2021/12/28 01:48:32;;;;;;;;;;;;;;;;;;4954763;28;19914;-71
2021/12/28 01:50:57;;;;;;;;;;;;;;;;;;4968265;28;19921;-71
2021/12/28 01:53:23;;;;;;;;;;;;;;;;;;4955180;28;19914;-70
2021/12/28 01:55:49;;;;;;;;;;;;;;;;;;4953719;28;19956;-71
2021/12/28 01:58:15;;;;;;;;;;;;;;;;;;4954519;29;19989;-71
2021/12/28 02:00:41;;;;;;;;;;;;;;;;;;4948016;28;19954;-72
2021/12/28 02:03:07;;;;;;;;;;;;;;;;;;4954654;28;19949;-70
2021/12/28 02:05:33;;;;;;;;;;;;;;;;;;4953447;28;19957;-70
2021/12/28 02:07:59;;;;;;;;;;;;;;;;;;4959074;28;19915;-71
2021/12/28 02:10:25;;;;;;;;;;;;;;;;;;4956718;28;20426;-70
2021/12/28 02:12:51;;;;;;;;;;;;;;;;;;4951006;28;20828;-71
2021/12/28 02:15:17;;;;;;;;;;;;;;;;;;4953949;28;20382;-70
2021/12/28 02:17:43;;;;;;;;;;;;;;;;;;4969334;28;20374;-70
2021/12/28 02:20:09;;;;;;;;;;;;;;;;;;4967491;28;20430;-71
2021/12/28 02:22:35;;;;;;;;;;;;;;;;;;4954939;28;19944;-71
2021/12/28 02:25:01;;;;;;;;;;;;;;;;;;4953341;28;19942;-70
2021/12/28 02:27:26;;;;;;;;;;;;;;;;;;4969303;28;19961;-70
2021/12/28 02:29:52;;;;;;;;;;;;;;;;;;4949730;28;20013;-70
2021/12/28 02:32:18;;;;;;;;;;;;;;;;;;4942804;28;19915;-70
2021/12/28 02:34:45;;;;;;;;;;;;;;;;;;4952859;28;19954;-71
2021/12/28 02:37:11;;;;;;;;;;;;;;;;;;4954665;28;19915;-71
2021/12/28 02:39:37;;;;;;;;;;;;;;;;;;4966265;28;20020;-72
2021/12/28 02:42:03;;;;;;;;;;;;;;;;;;4952780;28;19957;-71
2021/12/28 02:44:29;;;;;;;;;;;;;;;;;;4966481;28;19914;-71
2021/12/28 02:46:55;;;;;;;;;;;;;;;;;;4953172;28;20966;-71
2021/12/28 02:49:21;;;;;;;;;;;;;;;;;;4950601;28;19934;-71
2021/12/28 02:51:47;;;;;;;;;;;;;;;;;;4952086;28;19958;-72
2021/12/28 02:54:13;;;;;;;;;;;;;;;;;;4968031;28;19961;-71
2021/12/28 02:56:39;;;;;;;;;;;;;;;;;;4952765;28;19949;-71
2021/12/28 02:59:05;;;;;;;;;;;;;;;;;;4963166;28;20017;-70
2021/12/28 03:01:31;;;;;;;;;;;;;;;;;;4952281;28;20039;-71
2021/12/28 03:03:58;;;;;;;;;;;;;;;;;;4947590;28;19949;-72
2021/12/28 03:06:24;;;;;;;;;;;;;;;;;;4954192;28;19915;-71
2021/12/28 03:08:51;;;;;;;;;;;;;;;;;;4952613;28;19958;-71
2021/12/28 03:11:17;;;;;;;;;;;;;;;;;;4953122;28;19969;-71
2021/12/28 03:13:43;;;;;;;;;;;;;;;;;;4967511;28;19957;-71
2021/12/28 03:16:09;;;;;;;;;;;;;;;;;;4954321;28;19914;-71
2021/12/28 03:18:35;;;;;;;;;;;;;;;;;;4948554;28;20009;-71
2021/12/28 03:21:01;;;;;;;;;;;;;;;;;;4955534;28;20017;-71
2021/12/28 03:23:27;;;;;;;;;;;;;;;;;;4953721;28;20001;-71
2021/12/28 03:25:52;;;;;;;;;;;;;;;;;;4955105;28;19992;-71
2021/12/28 03:28:19;;;;;;;;;;;;;;;;;;4954493;28;19950;-71
2021/12/28 03:30:45;;;;;;;;;;;;;;;;;;4949503;28;20000;-70
2021/12/28 03:33:11;;;;;;;;;;;;;;;;;;4953386;28;20511;-70
2021/12/28 03:35:37;;;;;;;;;;;;;;;;;;4952797;28;19969;-71
2021/12/28 03:38:02;;;;;;;;;;;;;;;;;;4952192;28;20049;-70
2021/12/28 03:40:28;;;;;;;;;;;;;;;;;;4950439;28;19918;-71
2021/12/28 03:42:54;;;;;;;;;;;;;;;;;;4977393;28;20004;-71
2021/12/28 03:45:20;;;;;;;;;;;;;;;;;;4963928;28;19914;-71
2021/12/28 03:47:46;;;;;;;;;;;;;;;;;;4958366;28;19969;-71
2021/12/28 03:50:12;;;;;;;;;;;;;;;;;;4951920;28;20339;-72
2021/12/28 03:52:38;;;;;;;;;;;;;;;;;;4945946;28;19915;-71
2021/12/28 03:55:04;;;;;;;;;;;;;;;;;;4955001;28;19918;-70
2021/12/28 03:57:30;;;;;;;;;;;;;;;;;;4951426;28;19914;-71
2021/12/28 03:59:56;;;;;;;;;;;;;;;;;;4951663;28;19958;-71
2021/12/28 04:02:22;;;;;;;;;;;;;;;;;;4952934;28;19915;-71
2021/12/28 04:04:48;;;;;;;;;;;;;;;;;;4961008;28;19914;-72
2021/12/28 04:07:19;;;;;;;;;;;;;;;;;;4957282;28;19914;-71
2021/12/28 04:10:08;;;;;;;;;;;;;;;;;;4952367;28;19950;-73
2021/12/28 04:12:31;;;;;;;;;;;;;;;;;;4954772;28;19918;-72
2021/12/28 04:14:57;;;;;;;;;;;;;;;;;;4966060;28;20009;-72
2021/12/28 04:17:23;;;;;;;;;;;;;;;;;;4945540;28;19923;-72
2021/12/28 04:19:49;;;;;;;;;;;;;;;;;;4951359;28;19961;-71
2021/12/28 04:22:15;;;;;;;;;;;;;;;;;;4966761;28;19914;-73
2021/12/28 04:24:40;;;;;;;;;;;;;;;;;;4948811;28;19915;-72
2021/12/28 04:27:06;;;;;;;;;;;;;;;;;;4952732;28;19950;-72
2021/12/28 04:29:32;;;;;;;;;;;;;;;;;;4950927;28;19950;-71
2021/12/28 04:31:58;;;;;;;;;;;;;;;;;;4945202;28;19965;-72
2021/12/28 04:34:24;;;;;;;;;;;;;;;;;;4967621;28;19938;-72
2021/12/28 04:36:50;;;;;;;;;;;;;;;;;;4950062;28;19937;-73
2021/12/28 04:39:16;;;;;;;;;;;;;;;;;;4950217;28;19919;-72
2021/12/28 04:41:42;;;;;;;;;;;;;;;;;;4951983;28;20054;-73
2021/12/28 04:44:11;;;;;;;;;;;;;;;;;;4957280;28;19951;-72
2021/12/28 04:46:37;;;;;;;;;;;;;;;;;;4952584;28;19915;-72
2021/12/28 04:49:03;;;;;;;;;;;;;;;;;;4968985;28;20045;-72
2021/12/28 04:51:29;;;;;;;;;;;;;;;;;;4971806;28;19957;-72
2021/12/28 04:53:55;;;;;;;;;;;;;;;;;;4955696;28;19914;-72
2021/12/28 04:56:21;;;;;;;;;;;;;;;;;;4955662;28;19919;-73
2021/12/28 04:58:47;;;;;;;;;;;;;;;;;;4952473;28;20414;-73
2021/12/28 05:01:13;;;;;;;;;;;;;;;;;;4949931;28;19966;-73
2021/12/28 05:03:39;;;;;;;;;;;;;;;;;;4955101;28;19918;-72
2021/12/28 05:06:05;;;;;;;;;;;;;;;;;;4955707;28;19961;-72
2021/12/28 05:08:31;;;;;;;;;;;;;;;;;;4956021;28;19921;-73
2021/12/28 05:10:57;;;;;;;;;;;;;;;;;;4953088;28;19954;-72
2021/12/28 05:13:23;;;;;;;;;;;;;;;;;;4949597;29;20008;-72
2021/12/28 05:15:49;;;;;;;;;;;;;;;;;;4947682;28;19937;-72
2021/12/28 05:18:15;;;;;;;;;;;;;;;;;;4967383;28;19958;-73
2021/12/28 05:20:41;;;;;;;;;;;;;;;;;;4954947;28;20522;-73
2021/12/28 05:23:07;;;;;;;;;;;;;;;;;;4951023;28;20383;-73
2021/12/28 05:25:33;;;;;;;;;;;;;;;;;;4950770;28;20358;-73
2021/12/28 05:27:59;;;;;;;;;;;;;;;;;;4955241;28;19928;-73
2021/12/28 05:30:25;;;;;;;;;;;;;;;;;;4967195;28;19915;-73
2021/12/28 05:32:51;;;;;;;;;;;;;;;;;;4945754;28;19957;-71
2021/12/28 05:35:17;;;;;;;;;;;;;;;;;;4955707;28;19969;-72
2021/12/28 05:37:43;;;;;;;;;;;;;;;;;;4963389;28;19914;-73
2021/12/28 05:40:09;;;;;;;;;;;;;;;;;;4953159;28;19962;-72
2021/12/28 05:42:35;;;;;;;;;;;;;;;;;;4954384;28;19925;-73
2021/12/28 05:45:01;;;;;;;;;;;;;;;;;;4948261;28;19922;-73
2021/12/28 05:47:27;;;;;;;;;;;;;;;;;;4970052;28;19919;-73
2021/12/28 05:49:52;;;;;;;;;;;;;;;;;;4968816;28;19967;-72
2021/12/28 05:52:18;;;;;;;;;;;;;;;;;;4955228;28;19962;-73
2021/12/28 05:54:44;;;;;;;;;;;;;;;;;;4953918;28;19942;-72
2021/12/28 05:57:10;;;;;;;;;;;;;;;;;;4955307;28;19973;-73
2021/12/28 05:59:36;;;;;;;;;;;;;;;;;;4952854;28;19954;-73
2021/12/28 06:02:02;;;;;;;;;;;;;;;;;;4953255;28;19920;-72
2021/12/28 06:04:28;;;;;;;;;;;;;;;;;;4954591;28;19950;-72
2021/12/28 06:06:54;;;;;;;;;;;;;;;;;;4953233;28;20014;-73
2021/12/28 06:09:20;;;;;;;;;;;;;;;;;;4960131;28;20306;-72
2021/12/28 06:11:46;;;;;;;;;;;;;;;;;;4968464;28;20339;-73
2021/12/28 06:14:12;;;;;;;;;;;;;;;;;;4961646;28;20336;-74
2021/12/28 06:16:39;;;;;;;;;;;;;;;;;;4969842;28;20388;-72
2021/12/28 06:19:04;;;;;;;;;;;;;;;;;;4958699;28;19914;-72
2021/12/28 06:21:31;;;;;;;;;;;;;;;;;;4954071;28;19949;-74
2021/12/28 06:23:57;;;;;;;;;;;;;;;;;;4947189;28;19914;-73
2021/12/28 06:26:22;;;;;;;;;;;;;;;;;;4945874;28;19950;-73
2021/12/28 06:28:48;;;;;;;;;;;;;;;;;;4953590;28;19915;-74
2021/12/28 06:31:14;;;;;;;;;;;;;;;;;;4968718;28;19918;-74
2021/12/28 06:33:40;;;;;;;;;;;;;;;;;;4969132;28;19922;-72
2021/12/28 06:36:06;;;;;;;;;;;;;;;;;;4954307;28;19961;-73
2021/12/28 06:38:32;;;;;;;;;;;;;;;;;;4946050;28;19958;-74
2021/12/28 06:40:58;;;;;;;;;;;;;;;;;;4951304;28;19919;-72
2021/12/28 06:43:24;;;;;;;;;;;;;;;;;;4954432;28;19919;-73
2021/12/28 06:45:51;;;;;;;;;;;;;;;;;;4943493;28;19993;-73
2021/12/28 06:48:17;;;;;;;;;;;;;;;;;;4950314;28;19942;-73
2021/12/28 06:50:43;;;;;;;;;;;;;;;;;;4967384;28;20445;-73
2021/12/28 06:53:09;;;;;;;;;;;;;;;;;;4963927;28;19915;-73
2021/12/28 06:55:35;;;;;;;;;;;;;;;;;;4964368;28;19922;-73
2021/12/28 06:58:01;;;;;;;;;;;;;;;;;;4949815;28;19922;-73
2021/12/28 07:00:27;;;;;;;;;;;;;;;;;;4946245;28;19962;-73
2021/12/28 07:02:53;;;;;;;;;;;;;;;;;;4953979;28;19919;-74
2021/12/28 07:05:19;;;;;;;;;;;;;;;;;;4953891;28;19914;-73
2021/12/28 07:07:45;;;;;;;;;;;;;;;;;;4953795;28;19945;-74
2021/12/28 07:10:11;;;;;;;;;;;;;;;;;;4960596;28;19959;-73
2021/12/28 07:12:37;;;;;;;;;;;;;;;;;;4965590;28;20575;-73
2021/12/28 07:15:03;;;;;;;;;;;;;;;;;;4961679;28;20001;-73
2021/12/28 07:17:29;;;;;;;;;;;;;;;;;;4953698;28;19914;-73
2021/12/28 07:19:55;;;;;;;;;;;;;;;;;;4951833;28;19961;-74
2021/12/28 07:22:21;;;;;;;;;;;;;;;;;;4967790;28;19923;-74
2021/12/28 07:24:47;;;;;;;;;;;;;;;;;;4952828;28;19918;-72
2021/12/28 07:27:13;;;;;;;;;;;;;;;;;;4950333;28;19957;-73
2021/12/28 07:29:39;;;;;;;;;;;;;;;;;;4951455;28;19958;-74
2021/12/28 07:32:06;;;;;;;;;;;;;;;;;;4957804;28;20391;-74
2021/12/28 07:34:32;;;;;;;;;;;;;;;;;;4967774;28;20294;-75
2021/12/28 07:36:58;;;;;;;;;;;;;;;;;;4968178;28;20275;-74
2021/12/28 07:39:24;;;;;;;;;;;;;;;;;;4943834;28;19969;-74
2021/12/28 07:41:50;;;;;;;;;;;;;;;;;;4952266;28;19950;-73
2021/12/28 07:44:16;;;;;;;;;;;;;;;;;;4952939;28;19914;-74
2021/12/28 07:46:42;;;;;;;;;;;;;;;;;;4952892;28;20013;-72
2021/12/28 07:49:08;;;;;;;;;;;;;;;;;;4950003;28;19965;-73
2021/12/28 07:51:34;;;;;;;;;;;;;;;;;;4952606;28;19922;-74
2021/12/28 07:54:00;;;;;;;;;;;;;;;;;;4953130;28;19921;-73
2021/12/28 07:56:26;;;;;;;;;;;;;;;;;;4952306;28;19922;-73
2021/12/28 07:58:52;;;;;;;;;;;;;;;;;;4951098;28;19972;-73
2021/12/28 08:01:17;;;;;;;;;;;;;;;;;;4951801;28;20080;-75
2021/12/28 08:03:43;;;;;;;;;;;;;;;;;;4965852;28;20363;-74
2021/12/28 08:06:09;;;;;;;;;;;;;;;;;;4953059;28;19993;-73
2021/12/28 08:08:35;;;;;;;;;;;;;;;;;;4944630;28;19918;-73
2021/12/28 08:11:01;;;;;;;;;;;;;;;;;;4966671;28;20013;-74
2021/12/28 08:13:27;;;;;;;;;;;;;;;;;;4952084;28;19922;-73
2021/12/28 08:15:55;;;;;;;;;;;;;;;;;;4952647;28;19914;-73
2021/12/28 08:18:21;;;;;;;;;;;;;;;;;;4949100;28;19923;-73
2021/12/28 08:20:47;;;;;;;;;;;;;;;;;;4947576;28;19925;-73
2021/12/28 08:23:13;;;;;;;;;;;;;;;;;;4951654;28;19915;-73
2021/12/28 08:25:38;;;;;;;;;;;;;;;;;;4951424;28;20351;-73
2021/12/28 08:28:06;;;;;;;;;;;;;;;;;;4958842;28;20370;-75
2021/12/28 08:30:34;;;;;;;;;;;;;;;;;;4962468;28;19914;-74
2021/12/28 08:33:00;;;;;;;;;;;;;;;;;;4957050;28;19914;-73
2021/12/28 08:35:26;;;;;;;;;;;;;;;;;;4954758;28;19921;-73
2021/12/28 08:37:52;;;;;;;;;;;;;;;;;;4955604;28;19953;-73
2021/12/28 08:40:20;;;;;;;;;;;;;;;;;;4966962;28;19957;-73
2021/12/28 08:42:46;;;;;;;;;;;;;;;;;;4953767;28;19918;-74
2021/12/28 08:45:12;;;;;;;;;;;;;;;;;;4954097;28;20417;-73
2021/12/28 08:47:38;;;;;;;;;;;;;;;;;;4955338;28;19949;-74
2021/12/28 08:50:05;;;;;;;;;;;;;;;;;;4954361;28;19918;-74
2021/12/28 08:52:31;;;;;;;;;;;;;;;;;;4979614;28;19915;-74
2021/12/28 08:54:57;;;;;;;;;;;;;;;;;;4954893;28;19957;-73
2021/12/28 08:57:23;;;;;;;;;;;;;;;;;;4971843;28;19960;-73
2021/12/28 08:59:49;;;;;;;;;;;;;;;;;;4952309;28;20375;-73
2021/12/28 09:02:15;;;;;;;;;;;;;;;;;;4951508;28;19960;-75
2021/12/28 09:04:43;;;;;;;;;;;;;;;;;;4955694;28;20016;-74
2021/12/28 09:07:09;;;;;;;;;;;;;;;;;;4962675;28;20401;-75
2021/12/28 09:09:35;;;;;;;;;;;;;;;;;;4958349;28;19919;-73
2021/12/28 09:12:01;;;;;;;;;;;;;;;;;;4958169;28;19956;-74
2021/12/28 09:14:27;;;;;;;;;;;;;;;;;;4967708;28;19918;-75
2021/12/28 09:16:53;;;;;;;;;;;;;;;;;;4954438;28;19950;-75
2021/12/28 09:19:19;;;;;;;;;;;;;;;;;;4954115;28;19946;-74
2021/12/28 09:21:45;;;;;;;;;;;;;;;;;;4947407;28;19915;-74
2021/12/28 09:24:11;;;;;;;;;;;;;;;;;;4970174;28;19914;-75
2021/12/28 09:26:36;;;;;;;;;;;;;;;;;;4947581;28;19942;-75
2021/12/28 09:29:02;;;;;;;;;;;;;;;;;;4968647;28;20104;-76
2021/12/28 09:31:29;;;;;;;;;;;;;;;;;;4962219;28;19922;-75
2021/12/28 09:33:55;;;;;;;;;;;;;;;;;;4960311;28;20346;-75
2021/12/28 09:36:20;;;;;;;;;;;;;;;;;;4955501;28;20046;-73
2021/12/28 09:38:46;;;;;;;;;;;;;;;;;;4953889;28;19996;-73
2021/12/28 09:41:12;;;;;;;;;;;;;;;;;;4952728;28;20367;-74
2021/12/28 09:46:07;;;;;;;;;;;;;;;;;;4952783;28;19953;-69
2021/12/28 09:48:33;;;;;;;;;;;;;;;;;;4963202;28;20372;-69
2021/12/28 09:50:59;;;;;;;;;;;;;;;;;;4966551;28;19915;-69
2021/12/28 09:53:25;;;;;;;;;;;;;;;;;;4947692;28;19961;-70
2021/12/28 09:55:51;;;;;;;;;;;;;;;;;;4949569;28;19953;-69
2021/12/28 09:58:17;;;;;;;;;;;;;;;;;;4952305;28;19953;-69
2021/12/28 10:00:43;;;;;;;;;;;;;;;;;;4950977;28;19918;-69
2021/12/28 10:03:09;;;;;;;;;;;;;;;;;;4968845;28;19993;-69
2021/12/28 10:05:35;;;;;;;;;;;;;;;;;;4950096;28;20001;-69
2021/12/28 10:08:01;;;;;;;;;;;;;;;;;;4953131;28;19934;-70
2021/12/28 10:10:27;;;;;;;;;;;;;;;;;;4947627;28;20005;-69
2021/12/28 10:12:53;;;;;;;;;;;;;;;;;;4956031;28;19920;-70
2021/12/28 10:15:19;;;;;;;;;;;;;;;;;;4951965;28;19929;-69
2021/12/28 10:17:45;;;;;;;;;;;;;;;;;;4954347;28;19914;-70
2021/12/28 10:20:11;;;;;;;;;;;;;;;;;;4946978;28;20016;-69
2021/12/28 10:22:36;;;;;;;;;;;;;;;;;;4951646;28;19953;-69
2021/12/28 10:25:02;;;;;;;;;;;;;;;;;;4950187;28;19962;-72
2021/12/28 10:27:28;;;;;;;;;;;;;;;;;;4951673;28;20405;-71
2021/12/28 10:29:54;;;;;;;;;;;;;;;;;;4949120;28;19921;-71
2021/12/28 10:32:20;;;;;;;;;;;;;;;;;;4951935;28;19918;-71
2021/12/28 10:34:46;;;;;;;;;;;;;;;;;;4946716;28;19962;-70
2021/12/28 10:37:12;;;;;;;;;;;;;;;;;;4950285;28;20387;-71
2021/12/28 10:39:40;;;;;;;;;;;;;;;;;;4946141;28;20292;-70
2021/12/28 10:42:06;;;;;;;;;;;;;;;;;;4948050;28;19966;-69
2021/12/28 10:44:32;;;;;;;;;;;;;;;;;;4948257;28;19971;-69
2021/12/28 10:46:59;;;;;;;;;;;;;;;;;;4944870;28;19949;-70
2021/12/28 10:49:25;;;;;;;;;;;;;;;;;;4940799;28;19922;-71
2021/12/28 10:51:53;;;;;;;;;;;;;;;;;;4947006;28;20409;-71
2021/12/28 10:54:19;;;;;;;;;;;;;;;;;;4947475;28;19914;-70
2021/12/28 10:56:45;;;;;;;;;;;;;;;;;;4944895;28;20377;-70
2021/12/28 10:59:12;;;;;;;;;;;;;;;;;;4966212;28;20448;-70
2021/12/28 11:01:38;;;;;;;;;;;;;;;;;;4947008;28;19921;-70
2021/12/28 11:04:05;;;;;;;;;;;;;;;;;;4949481;28;19915;-71
2021/12/28 11:06:31;;;;;;;;;;;;;;;;;;4945392;28;19915;-72
2021/12/28 11:08:57;;;;;;;;;;;;;;;;;;4946988;28;19942;-69
2021/12/28 11:11:24;;;;;;;;;;;;;;;;;;4946814;28;19977;-68
2021/12/28 11:13:50;;;;;;;;;;;;;;;;;;4949587;28;19942;-71
2021/12/28 11:16:18;;;;;;;;;;;;;;;;;;4950479;28;19915;-70
2021/12/28 11:18:44;;;;;;;;;;;;;;;;;;4947339;28;20372;-70
2021/12/28 11:21:10;;;;;;;;;;;;;;;;;;4963168;28;20091;-69
2021/12/28 11:23:36;;;;;;;;;;;;;;;;;;4950234;28;19958;-69
2021/12/28 11:26:02;;;;;;;;;;;;;;;;;;4952949;28;19918;-68
2021/12/28 11:28:29;;;;;;;;;;;;;;;;;;4961746;28;20115;-68
2021/12/28 11:30:55;;;;;;;;;;;;;;;;;;4968449;28;19914;-68
2021/12/28 11:33:21;;;;;;;;;;;;;;;;;;4956334;28;20400;-68
2021/12/28 11:35:47;;;;;;;;;;;;;;;;;;4964825;28;20412;-70
2021/12/28 11:38:13;;;;;;;;;;;;;;;;;;4955344;28;19961;-67
2021/12/28 11:40:39;;;;;;;;;;;;;;;;;;4944261;28;19965;-68
2021/12/28 11:43:05;;;;;;;;;;;;;;;;;;4947899;28;20221;-67
2021/12/28 11:45:31;;;;;;;;;;;;;;;;;;4948130;28;19961;-68
2021/12/28 11:47:57;;;;;;;;;;;;;;;;;;4947558;28;20005;-68
2021/12/28 11:50:23;;;;;;;;;;;;;;;;;;4948143;28;19956;-68
2021/12/28 11:52:52;;;;;;;;;;;;;;;;;;4950998;28;19921;-67
2021/12/28 11:55:17;;;;;;;;;;;;;;;;;;4949841;28;19915;-68
2021/12/28 11:57:43;;;;;;;;;;;;;;;;;;4948709;28;20013;-70
2021/12/28 12:00:09;;;;;;;;;;;;;;;;;;4948297;28;20044;-70
2021/12/28 12:02:35;;;;;;;;;;;;;;;;;;4949927;28;19953;-68
2021/12/28 12:05:01;;;;;;;;;;;;;;;;;;4950722;28;20429;-67
2021/12/28 12:07:28;;;;;;;;;;;;;;;;;;4950275;28;19984;-68
2021/12/28 12:09:55;;;;;;;;;;;;;;;;;;4946425;28;19915;-67
2021/12/28 12:12:21;;;;;;;;;;;;;;;;;;4949411;28;19922;-67
2021/12/28 12:14:47;;;;;;;;;;;;;;;;;;4964675;28;20348;-68
2021/12/28 12:17:13;;;;;;;;;;;;;;;;;;4950636;28;20384;-68
2021/12/28 12:19:39;;;;;;;;;;;;;;;;;;4960884;28;20013;-67
2021/12/28 12:22:05;;;;;;;;;;;;;;;;;;4940890;28;19969;-67
2021/12/28 12:24:31;;;;;;;;;;;;;;;;;;4950177;28;19950;-67
2021/12/28 12:26:56;;;;;;;;;;;;;;;;;;4947965;28;19961;-67
2021/12/28 12:29:22;;;;;;;;;;;;;;;;;;4961792;28;19981;-67
2021/12/28 12:31:49;;;;;;;;;;;;;;;;;;4951227;28;20091;-67
2021/12/28 12:34:15;;;;;;;;;;;;;;;;;;4948940;28;20336;-68
2021/12/28 12:36:42;;;;;;;;;;;;;;;;;;4945727;28;19961;-68
2021/12/28 12:39:08;;;;;;;;;;;;;;;;;;4955770;28;19986;-67
2021/12/28 12:41:34;;;;;;;;;;;;;;;;;;4945982;28;20005;-68
2021/12/28 12:44:00;;;;;;;;;;;;;;;;;;4947868;28;19970;-69
2021/12/28 12:46:26;;;;;;;;;;;;;;;;;;4945436;28;19957;-68
2021/12/28 12:48:52;;;;;;;;;;;;;;;;;;4948077;28;19914;-69
2021/12/28 12:51:18;;;;;;;;;;;;;;;;;;4942730;28;20001;-68
2021/12/28 12:53:45;;;;;;;;;;;;;;;;;;4942461;28;19954;-68
2021/12/28 12:56:11;;;;;;;;;;;;;;;;;;4946406;28;19915;-67
2021/12/28 12:58:36;;;;;;;;;;;;;;;;;;4949638;28;20013;-67
2021/12/28 13:01:02;;;;;;;;;;;;;;;;;;4944858;28;19970;-68
2021/12/28 13:03:28;;;;;;;;;;;;;;;;;;4950443;29;19938;-68
2021/12/28 13:05:54;;;;;;;;;;;;;;;;;;4950152;28;20420;-67
2021/12/28 13:08:20;;;;;;;;;;;;;;;;;;4946750;28;20360;-68
2021/12/28 13:10:46;;;;;;;;;;;;;;;;;;4962155;28;20359;-68
2021/12/28 13:13:12;;;;;;;;;;;;;;;;;;4973442;28;20455;-68
2021/12/28 13:15:38;;;;;;;;;;;;;;;;;;4950539;28;20560;-67
2021/12/28 13:18:04;;;;;;;;;;;;;;;;;;4966609;28;20397;-70
2021/12/28 13:20:30;;;;;;;;;;;;;;;;;;4946771;28;20408;-68
2021/12/28 13:22:56;;;;;;;;;;;;;;;;;;4952194;28;20423;-68
2021/12/28 13:25:22;;;;;;;;;;;;;;;;;;4949767;28;19918;-68
2021/12/28 13:27:48;;;;;;;;;;;;;;;;;;4945821;28;19969;-67
2021/12/28 13:30:14;;;;;;;;;;;;;;;;;;4950227;28;19914;-68
2021/12/28 13:32:40;;;;;;;;;;;;;;;;;;4945694;28;19954;-68
2021/12/28 13:35:06;;;;;;;;;;;;;;;;;;4953547;28;20415;-69
2021/12/28 13:37:32;;;;;;;;;;;;;;;;;;4954217;28;19946;-69
2021/12/28 13:39:58;;;;;;;;;;;;;;;;;;4953036;28;20437;-70
2021/12/28 13:42:24;;;;;;;;;;;;;;;;;;4957200;28;19953;-69
2021/12/28 13:44:49;;;;;;;;;;;;;;;;;;4951485;28;20013;-68
2021/12/28 13:47:15;;;;;;;;;;;;;;;;;;4949495;28;19961;-68
2021/12/28 13:49:41;;;;;;;;;;;;;;;;;;4951645;28;19966;-68
2021/12/28 13:52:07;;;;;;;;;;;;;;;;;;4948614;28;19966;-68
2021/12/28 13:54:33;;;;;;;;;;;;;;;;;;4952072;28;20005;-68
2021/12/28 13:57:01;;;;;;;;;;;;;;;;;;4951829;28;19974;-69
2021/12/28 13:59:27;;;;;;;;;;;;;;;;;;4949498;28;19997;-69
2021/12/28 14:01:54;;;;;;;;;;;;;;;;;;4943954;28;19962;-69
2021/12/28 14:04:20;;;;;;;;;;;;;;;;;;4953714;28;19966;-69
2021/12/28 14:06:46;;;;;;;;;;;;;;;;;;4944847;28;19925;-69
2021/12/28 14:09:12;;;;;;;;;;;;;;;;;;4954059;28;20005;-69
2021/12/28 14:11:38;;;;;;;;;;;;;;;;;;4949078;28;19958;-69
2021/12/28 14:14:04;;;;;;;;;;;;;;;;;;4951786;28;19957;-70
2021/12/28 14:16:30;;;;;;;;;;;;;;;;;;4952786;28;19943;-69
2021/12/28 14:18:56;;;;;;;;;;;;;;;;;;4952792;28;19946;-69
2021/12/28 14:21:24;;;;;;;;;;;;;;;;;;4949423;28;19953;-69
2021/12/28 14:23:50;;;;;;;;;;;;;;;;;;4964070;28;20241;-69
2021/12/28 14:26:16;;;;;;;;;;;;;;;;;;4950605;28;19997;-69
2021/12/28 14:28:42;;;;;;;;;;;;;;;;;;4947215;28;19964;-71
2021/12/28 14:31:08;;;;;;;;;;;;;;;;;;4950486;28;20309;-70
2021/12/28 14:33:34;;;;;;;;;;;;;;;;;;4955734;28;19962;-70
2021/12/28 14:36:00;;;;;;;;;;;;;;;;;;4964369;28;19949;-69
2021/12/28 14:38:26;;;;;;;;;;;;;;;;;;4953684;28;19961;-70
2021/12/28 14:40:53;;;;;;;;;;;;;;;;;;4943656;28;19992;-70
2021/12/28 14:43:19;;;;;;;;;;;;;;;;;;4949024;28;19915;-70
2021/12/28 14:45:45;;;;;;;;;;;;;;;;;;4965970;28;19923;-70
2021/12/28 14:48:11;;;;;;;;;;;;;;;;;;4952058;28;19922;-69
2021/12/28 14:50:37;;;;;;;;;;;;;;;;;;4948563;28;19949;-68
2021/12/28 14:53:03;;;;;;;;;;;;;;;;;;4948550;28;20004;-69
2021/12/28 14:55:30;;;;;;;;;;;;;;;;;;4948734;28;20010;-69
2021/12/28 14:57:56;;;;;;;;;;;;;;;;;;4967024;28;19918;-69
2021/12/28 15:00:22;;;;;;;;;;;;;;;;;;4969431;28;19972;-69
2021/12/28 15:02:48;;;;;;;;;;;;;;;;;;4949979;28;19946;-69
2021/12/28 15:05:14;;;;;;;;;;;;;;;;;;4956729;28;20021;-69
2021/12/28 15:07:40;;;;;;;;;;;;;;;;;;4947610;28;19929;-70
2021/12/28 15:10:10;;;;;;;;;;;;;;;;;;4949586;28;20399;-71
2021/12/28 15:12:36;;;;;;;;;;;;;;;;;;4953413;28;20520;-68
2021/12/28 15:15:02;;;;;;;;;;;;;;;;;;4970074;28;20009;-70
2021/12/28 15:17:28;;;;;;;;;;;;;;;;;;4959671;28;19914;-70
2021/12/28 15:19:54;;;;;;;;;;;;;;;;;;4972155;28;20423;-70
2021/12/28 15:22:20;;;;;;;;;;;;;;;;;;4969715;28;19918;-70
2021/12/28 15:24:46;;;;;;;;;;;;;;;;;;4952278;28;19918;-70
2021/12/28 15:27:17;;;;;;;;;;;;;;;;;;4950801;28;19993;-69
2021/12/28 15:29:44;;;;;;;;;;;;;;;;;;4963030;28;19941;-70
2021/12/28 15:32:10;;;;;;;;;;;;;;;;;;4958629;23;19930;-85
2021/12/28 15:34:36;;;;;;;;;;;;;;;;;;4969244;28;19923;-89
2021/12/28 15:37:02;;;;;;;;;;;;;;;;;;4956185;28;19919;-91
2021/12/28 15:39:29;;;;;;;;;;;;;;;;;;4966204;28;19984;-88
2021/12/28 15:41:55;;;;;;;;;;;;;;;;;;4952078;28;19924;-94
2021/12/28 15:44:21;;;;;;;;;;;;;;;;;;4948212;28;19954;-87
2021/12/28 15:46:46;;;;;;;;;;;;;;;;;;4959812;28;19915;-88
2021/12/28 15:49:15;;;;;;;;;;;;;;;;;;4956654;28;19969;-87
2021/12/28 15:54:25;;;;;;;;;;;;;;;;;;4952709;28;19946;-87
2021/12/28 15:56:51;;;;;;;;;;;;;;;;;;4946166;28;19981;-86
2021/12/28 15:59:17;;;;;;;;;;;;;;;;;;4945743;29;20413;-87
2021/12/28 16:01:43;;;;;;;;;;;;;;;;;;4950640;28;19985;-86
2021/12/28 16:04:09;;;;;;;;;;;;;;;;;;4959349;28;19921;-86
2021/12/28 16:06:35;;;;;;;;;;;;;;;;;;4951621;28;19919;-86
2021/12/28 16:09:01;;;;;;;;;;;;;;;;;;4958431;28;20041;-86
2021/12/28 16:11:27;;;;;;;;;;;;;;;;;;4946049;28;20001;-88
2021/12/28 16:13:53;;;;;;;;;;;;;;;;;;4950658;28;19918;-87
2021/12/28 16:16:19;;;;;;;;;;;;;;;;;;4948921;28;20371;-88
2021/12/28 16:18:46;;;;;;;;;;;;;;;;;;4945072;28;20365;-86
2021/12/28 16:21:12;;;;;;;;;;;;;;;;;;4946010;28;19926;-88
2021/12/28 16:23:38;;;;;;;;;;;;;;;;;;4947410;28;19950;-87
2021/12/28 16:26:04;;;;;;;;;;;;;;;;;;4950340;28;20016;-88
2021/12/28 16:28:30;;;;;;;;;;;;;;;;;;4951366;28;19958;-88
2021/12/28 16:30:56;;;;;;;;;;;;;;;;;;4959856;28;19914;-88
2021/12/28 16:33:22;;;;;;;;;;;;;;;;;;4961730;28;19977;-87
2021/12/28 16:35:48;;;;;;;;;;;;;;;;;;4953266;28;19915;-87
2021/12/28 16:38:15;;;;;;;;;;;;;;;;;;4957652;28;20009;-87
2021/12/28 16:40:41;;;;;;;;;;;;;;;;;;4947460;28;19928;-87
2021/12/28 16:43:07;;;;;;;;;;;;;;;;;;4955355;28;19926;-88